sensor_id;sensor_type;location;lat;lon;timestamp;pressure;altitude;pressure_sealevel;temperature;humidity
25650;BME280;13505;45.196;5.696;2023-05-22T06:00:15;99020.16;;;16.12;96.29
25650;BME280;13505;45.196;5.696;2023-05-22T06:05:05;99026.84;;;16.18;97.02
25650;BME280;13505;45.196;5.696;2023-05-22T06:09:57;99028.38;;;16.33;94.37
25650;BME280;13505;45.196;5.696;2023-05-22T06:14:47;99034.31;;;16.50;92.53
25650;BME280;13505;45.196;5.696;2023-05-22T06:19:37;99024.16;;;16.80;91.50
25650;BME280;13505;45.196;5.696;2023-05-22T06:24:28;99038.50;;;16.90;88.80
25650;BME280;13505;45.196;5.696;2023-05-22T06:29:18;99038.81;;;17.34;86.72
25650;BME280;13505;45.196;5.696;2023-05-22T06:34:08;99043.25;;;17.22;85.23
25650;BME280;13505;45.196;5.696;2023-05-22T06:39:01;99038.72;;;16.87;87.40
25650;BME280;13505;45.196;5.696;2023-05-22T06:43:51;99028.41;;;17.42;85.50
25650;BME280;13505;45.196;5.696;2023-05-22T06:48:42;99028.91;;;17.82;82.24
25650;BME280;13505;45.196;5.696;2023-05-22T06:53:32;99018.28;;;18.27;80.71
25650;BME280;13505;45.196;5.696;2023-05-22T06:58:22;99015.88;;;18.90;77.61
25650;BME280;13505;45.196;5.696;2023-05-22T07:03:13;99010.28;;;19.04;74.98
25650;BME280;13505;45.196;5.696;2023-05-22T07:08:03;99014.09;;;19.11;76.02
25650;BME280;13505;45.196;5.696;2023-05-22T07:12:54;99017.91;;;19.51;72.69
25650;BME280;13505;45.196;5.696;2023-05-22T07:17:44;99024.25;;;19.82;70.22
25650;BME280;13505;45.196;5.696;2023-05-22T07:22:35;99015.38;;;20.12;69.90
25650;BME280;13505;45.196;5.696;2023-05-22T07:27:25;99004.34;;;20.66;67.57
25650;BME280;13505;45.196;5.696;2023-05-22T07:32:16;99008.47;;;21.10;64.33
25650;BME280;13505;45.196;5.696;2023-05-22T07:37:07;99006.63;;;21.20;63.45
25650;BME280;13505;45.196;5.696;2023-05-22T07:41:58;99000.13;;;21.13;63.89
25650;BME280;13505;45.196;5.696;2023-05-22T07:46:48;99000.19;;;21.60;61.65
25650;BME280;13505;45.196;5.696;2023-05-22T07:51:39;99009.06;;;22.09;62.11
25650;BME280;13505;45.196;5.696;2023-05-22T07:56:30;99007.44;;;22.44;58.95
25650;BME280;13505;45.196;5.696;2023-05-22T08:01:21;99003.59;;;22.00;60.19
25650;BME280;13505;45.196;5.696;2023-05-22T08:06:12;99004.53;;;22.65;59.67
25650;BME280;13505;45.196;5.696;2023-05-22T08:11:05;98995.97;;;23.51;55.22
25650;BME280;13505;45.196;5.696;2023-05-22T08:15:55;98990.53;;;23.69;54.71
25650;BME280;13505;45.196;5.696;2023-05-22T08:20:45;98989.97;;;24.00;53.28
25650;BME280;13505;45.196;5.696;2023-05-22T08:25:36;98984.84;;;24.07;50.64
25650;BME280;13505;45.196;5.696;2023-05-22T08:30:26;98977.03;;;23.95;51.42
25650;BME280;13505;45.196;5.696;2023-05-22T08:35:17;98970.84;;;24.71;51.09
25650;BME280;13505;45.196;5.696;2023-05-22T08:40:10;98970.59;;;24.31;50.87
25650;BME280;13505;45.196;5.696;2023-05-22T08:45:02;98967.56;;;24.43;52.06
25650;BME280;13505;45.196;5.696;2023-05-22T08:49:53;98963.59;;;25.13;49.41
25650;BME280;13505;45.196;5.696;2023-05-22T08:54:50;98971.00;;;25.53;48.13
25650;BME280;13505;45.196;5.696;2023-05-22T08:59:42;98975.09;;;24.90;50.06
25650;BME280;13505;45.196;5.696;2023-05-22T09:04:34;98966.06;;;25.64;48.41
25650;BME280;13505;45.196;5.696;2023-05-22T09:09:25;98969.50;;;25.90;47.47
25650;BME280;13505;45.196;5.696;2023-05-22T09:14:15;98970.59;;;26.21;47.17
25650;BME280;13505;45.196;5.696;2023-05-22T09:19:05;98959.69;;;26.37;47.63
25650;BME280;13505;45.196;5.696;2023-05-22T09:23:59;98956.41;;;26.73;45.06
25650;BME280;13505;45.196;5.696;2023-05-22T09:28:50;98945.94;;;26.94;45.11
25650;BME280;13505;45.196;5.696;2023-05-22T09:33:42;98942.63;;;27.07;45.30
25650;BME280;13505;45.196;5.696;2023-05-22T09:38:33;98937.16;;;27.30;44.84
25650;BME280;13505;45.196;5.696;2023-05-22T09:43:23;98940.06;;;27.43;44.49
25650;BME280;13505;45.196;5.696;2023-05-22T09:48:17;98935.88;;;26.87;46.07
25650;BME280;13505;45.196;5.696;2023-05-22T09:53:09;98929.44;;;27.57;43.85
25650;BME280;13505;45.196;5.696;2023-05-22T09:58:02;98926.09;;;26.78;44.83
25650;BME280;13505;45.196;5.696;2023-05-22T10:02:58;98923.03;;;26.58;45.60
25650;BME280;13505;45.196;5.696;2023-05-22T10:07:55;98912.53;;;27.55;44.63
25650;BME280;13505;45.196;5.696;2023-05-22T10:12:56;98913.91;;;28.18;41.96
25650;BME280;13505;45.196;5.696;2023-05-22T10:17:50;98914.72;;;27.96;43.02
25650;BME280;13505;45.196;5.696;2023-05-22T10:22:41;98911.66;;;27.84;43.83
25650;BME280;13505;45.196;5.696;2023-05-22T10:27:31;98908.94;;;27.09;46.04
25650;BME280;13505;45.196;5.696;2023-05-22T10:32:41;98904.38;;;27.40;45.46
25650;BME280;13505;45.196;5.696;2023-05-22T10:37:48;98898.88;;;27.78;44.25
25650;BME280;13505;45.196;5.696;2023-05-22T10:42:39;98895.53;;;27.46;43.48
25650;BME280;13505;45.196;5.696;2023-05-22T10:47:32;98896.72;;;28.25;44.26
25650;BME280;13505;45.196;5.696;2023-05-22T10:52:23;98881.88;;;28.21;43.91
25650;BME280;13505;45.196;5.696;2023-05-22T10:57:15;98887.75;;;27.73;43.66
25650;BME280;13505;45.196;5.696;2023-05-22T11:02:20;98869.41;;;28.77;42.32
25650;BME280;13505;45.196;5.696;2023-05-22T11:07:10;98874.94;;;29.13;41.87
25650;BME280;13505;45.196;5.696;2023-05-22T11:12:22;98860.66;;;28.75;43.61
25650;BME280;13505;45.196;5.696;2023-05-22T11:17:16;98853.13;;;28.99;42.92
25650;BME280;13505;45.196;5.696;2023-05-22T11:22:08;98861.44;;;29.26;41.77
25650;BME280;13505;45.196;5.696;2023-05-22T11:27:01;98846.47;;;29.02;41.90
25650;BME280;13505;45.196;5.696;2023-05-22T11:31:52;98833.16;;;29.07;43.73
25650;BME280;13505;45.196;5.696;2023-05-22T11:36:42;98833.44;;;29.61;40.83
25650;BME280;13505;45.196;5.696;2023-05-22T11:41:33;98832.59;;;29.67;40.95
25650;BME280;13505;45.196;5.696;2023-05-22T11:46:23;98823.38;;;29.61;40.34
25650;BME280;13505;45.196;5.696;2023-05-22T11:51:18;98827.84;;;29.76;39.84
25650;BME280;13505;45.196;5.696;2023-05-22T11:56:09;98824.28;;;29.75;40.71
25650;BME280;13505;45.196;5.696;2023-05-22T12:01:04;98809.75;;;29.48;42.05
25650;BME280;13505;45.196;5.696;2023-05-22T12:05:55;98807.19;;;30.02;39.34
25650;BME280;13505;45.196;5.696;2023-05-22T12:10:47;98801.56;;;29.97;40.66
25650;BME280;13505;45.196;5.696;2023-05-22T12:15:38;98797.19;;;30.36;39.41
25650;BME280;13505;45.196;5.696;2023-05-22T12:20:29;98797.00;;;30.51;37.96
25650;BME280;13505;45.196;5.696;2023-05-22T12:25:20;98788.00;;;30.50;38.28
25650;BME280;13505;45.196;5.696;2023-05-22T12:30:14;98784.44;;;30.50;39.51
25650;BME280;13505;45.196;5.696;2023-05-22T12:35:04;98769.38;;;30.68;38.18
25650;BME280;13505;45.196;5.696;2023-05-22T12:39:59;98771.69;;;30.57;38.50
25650;BME280;13505;45.196;5.696;2023-05-22T12:44:55;98769.13;;;29.88;40.17
25650;BME280;13505;45.196;5.696;2023-05-22T12:49:45;98771.56;;;29.56;40.24
25650;BME280;13505;45.196;5.696;2023-05-22T12:54:36;98761.75;;;29.69;39.96
25650;BME280;13505;45.196;5.696;2023-05-22T12:59:26;98748.00;;;29.77;40.71
25650;BME280;13505;45.196;5.696;2023-05-22T13:04:16;98741.75;;;29.97;40.36
25650;BME280;13505;45.196;5.696;2023-05-22T13:09:07;98737.38;;;30.29;39.70
25650;BME280;13505;45.196;5.696;2023-05-22T13:13:57;98729.22;;;30.16;39.00
25650;BME280;13505;45.196;5.696;2023-05-22T13:18:47;98718.78;;;30.13;39.37
25650;BME280;13505;45.196;5.696;2023-05-22T13:23:38;98720.22;;;30.15;39.65
25650;BME280;13505;45.196;5.696;2023-05-22T13:28:28;98717.06;;;29.85;40.27
25650;BME280;13505;45.196;5.696;2023-05-22T13:33:18;98719.00;;;30.04;39.97
25650;BME280;13505;45.196;5.696;2023-05-22T13:38:09;98711.22;;;30.01;41.03
25650;BME280;13505;45.196;5.696;2023-05-22T13:42:59;98703.91;;;30.35;39.82
25650;BME280;13505;45.196;5.696;2023-05-22T13:47:50;98699.13;;;30.24;40.51
25650;BME280;13505;45.196;5.696;2023-05-22T13:52:40;98692.13;;;30.62;38.77
25650;BME280;13505;45.196;5.696;2023-05-22T13:57:30;98691.75;;;30.52;38.70
25650;BME280;13505;45.196;5.696;2023-05-22T14:02:21;98698.25;;;30.37;38.73
25650;BME280;13505;45.196;5.696;2023-05-22T14:07:11;98682.53;;;30.53;38.49
25650;BME280;13505;45.196;5.696;2023-05-22T14:12:01;98680.28;;;29.96;40.82
25650;BME280;13505;45.196;5.696;2023-05-22T14:16:52;98669.31;;;30.63;38.61
25650;BME280;13505;45.196;5.696;2023-05-22T14:21:43;98684.25;;;30.33;39.05
25650;BME280;13505;45.196;5.696;2023-05-22T14:26:33;98677.91;;;30.73;38.94
25650;BME280;13505;45.196;5.696;2023-05-22T14:31:26;98658.19;;;30.85;38.04
25650;BME280;13505;45.196;5.696;2023-05-22T14:36:17;98663.22;;;30.81;37.76
25650;BME280;13505;45.196;5.696;2023-05-22T14:41:07;98668.00;;;30.86;37.59
25650;BME280;13505;45.196;5.696;2023-05-22T14:45:57;98666.88;;;30.21;39.38
25650;BME280;13505;45.196;5.696;2023-05-22T14:50:48;98661.25;;;30.02;38.80
25650;BME280;13505;45.196;5.696;2023-05-22T14:55:39;98647.88;;;29.80;39.72
25650;BME280;13505;45.196;5.696;2023-05-22T15:00:29;98659.09;;;29.37;41.21
25650;BME280;13505;45.196;5.696;2023-05-22T15:05:20;98662.16;;;29.20;40.34
25650;BME280;13505;45.196;5.696;2023-05-22T15:10:11;98652.22;;;29.48;40.61
25650;BME280;13505;45.196;5.696;2023-05-22T15:15:01;98645.13;;;29.60;40.45
25650;BME280;13505;45.196;5.696;2023-05-22T15:19:51;98648.63;;;29.41;40.56
25650;BME280;13505;45.196;5.696;2023-05-22T15:24:42;98655.53;;;29.36;40.87
25650;BME280;13505;45.196;5.696;2023-05-22T15:29:32;98655.06;;;29.19;41.60
25650;BME280;13505;45.196;5.696;2023-05-22T15:34:23;98657.53;;;29.07;40.61
25650;BME280;13505;45.196;5.696;2023-05-22T15:39:13;98653.94;;;28.51;40.83
25650;BME280;13505;45.196;5.696;2023-05-22T15:44:03;98637.38;;;28.39;40.94
25650;BME280;13505;45.196;5.696;2023-05-22T15:48:54;98649.06;;;28.40;41.03
25650;BME280;13505;45.196;5.696;2023-05-22T15:53:44;98660.09;;;28.10;41.50
25650;BME280;13505;45.196;5.696;2023-05-22T15:58:35;98656.72;;;28.30;41.65
25650;BME280;13505;45.196;5.696;2023-05-22T16:03:25;98667.16;;;28.04;40.52
25650;BME280;13505;45.196;5.696;2023-05-22T16:08:16;98654.72;;;27.88;41.02
25650;BME280;13505;45.196;5.696;2023-05-22T16:13:06;98668.41;;;27.80;44.93
25650;BME280;13505;45.196;5.696;2023-05-22T16:17:59;98749.56;;;24.89;55.07
25650;BME280;13505;45.196;5.696;2023-05-22T16:22:49;98792.41;;;22.27;79.79
25650;BME280;13505;45.196;5.696;2023-05-22T16:27:40;98756.56;;;21.18;84.11
25650;BME280;13505;45.196;5.696;2023-05-22T16:32:30;98763.03;;;21.43;84.22
25650;BME280;13505;45.196;5.696;2023-05-22T16:37:21;98751.53;;;21.79;82.56
25650;BME280;13505;45.196;5.696;2023-05-22T16:42:14;98751.38;;;21.99;81.37
25650;BME280;13505;45.196;5.696;2023-05-22T16:47:04;98747.97;;;21.97;83.67
25650;BME280;13505;45.196;5.696;2023-05-22T16:51:56;98756.00;;;21.88;87.16
25650;BME280;13505;45.196;5.696;2023-05-22T16:56:46;98753.91;;;21.82;90.35
25650;BME280;13505;45.196;5.696;2023-05-22T17:01:36;98744.53;;;21.86;90.53
25650;BME280;13505;45.196;5.696;2023-05-22T17:06:27;98739.38;;;21.93;88.36
25650;BME280;13505;45.196;5.696;2023-05-22T17:11:19;98738.34;;;21.86;86.26
25650;BME280;13505;45.196;5.696;2023-05-22T17:16:09;98753.38;;;21.79;87.11
25650;BME280;13505;45.196;5.696;2023-05-22T17:21:01;98754.13;;;21.71;89.30
25650;BME280;13505;45.196;5.696;2023-05-22T17:25:53;98761.75;;;21.66;89.19
25650;BME280;13505;45.196;5.696;2023-05-22T17:30:44;98762.59;;;21.66;90.71
25650;BME280;13505;45.196;5.696;2023-05-22T17:35:35;98764.00;;;21.70;86.19
25650;BME280;13505;45.196;5.696;2023-05-22T17:40:25;98771.84;;;21.82;84.29
25650;BME280;13505;45.196;5.696;2023-05-22T17:45:15;98775.22;;;21.84;82.73
25650;BME280;13505;45.196;5.696;2023-05-22T17:50:06;98785.19;;;21.73;85.58
25650;BME280;13505;45.196;5.696;2023-05-22T17:54:56;98790.44;;;21.65;86.01
25650;BME280;13505;45.196;5.696;2023-05-22T17:59:47;98802.31;;;21.63;84.15
